sensor_id;sensor_type;location;lat;lon;timestamp;P1;durP1;ratioP1;P2;durP2;ratioP2
16135;SDS011;8173;48.354;9.248;2023-02-23T02:12:04;2.15;;;1.95;;
16135;SDS011;8173;48.354;9.248;2023-02-23T02:18:01;1.48;;;1.38;;
16135;SDS011;8173;48.354;9.248;2023-02-23T03:35:27;1.00;;;1.00;;
16135;SDS011;8173;48.354;9.248;2023-02-23T03:38:14;0.90;;;0.90;;
16135;SDS011;8173;48.354;9.248;2023-02-23T03:41:00;1.20;;;1.20;;
16135;SDS011;8173;48.354;9.248;2023-02-23T03:43:48;1.98;;;1.88;;
16135;SDS011;8173;48.354;9.248;2023-02-23T03:46:35;1.00;;;1.00;;
16135;SDS011;8173;48.354;9.248;2023-02-23T03:49:21;1.30;;;1.20;;
16135;SDS011;8173;48.354;9.248;2023-02-23T03:52:09;1.00;;;1.00;;
16135;SDS011;8173;48.354;9.248;2023-02-23T03:55:00;0.90;;;0.90;;
16135;SDS011;8173;48.354;9.248;2023-02-23T03:57:47;0.90;;;0.90;;
16135;SDS011;8173;48.354;9.248;2023-02-23T04:00:35;0.90;;;0.90;;
16135;SDS011;8173;48.354;9.248;2023-02-23T04:03:22;1.85;;;1.75;;
16135;SDS011;8173;48.354;9.248;2023-02-23T04:06:10;0.93;;;0.93;;
16135;SDS011;8173;48.354;9.248;2023-02-23T04:09:00;1.00;;;1.00;;
16135;SDS011;8173;48.354;9.248;2023-02-23T04:19:00;1.00;;;1.00;;
16135;SDS011;8173;48.354;9.248;2023-02-23T04:22:15;2.65;;;2.45;;
16135;SDS011;8173;48.354;9.248;2023-02-23T05:39:33;1.80;;;1.70;;
16135;SDS011;8173;48.354;9.248;2023-02-23T05:42:00;1.13;;;1.13;;
16135;SDS011;8173;48.354;9.248;2023-02-23T05:44:27;1.15;;;1.13;;
16135;SDS011;8173;48.354;9.248;2023-02-23T05:46:54;1.58;;;1.48;;
16135;SDS011;8173;48.354;9.248;2023-02-23T05:49:21;1.67;;;1.58;;
16135;SDS011;8173;48.354;9.248;2023-02-23T05:51:48;1.13;;;1.13;;
16135;SDS011;8173;48.354;9.248;2023-02-23T06:36:15;0.90;;;0.90;;
16135;SDS011;8173;48.354;9.248;2023-02-23T06:38:46;1.27;;;1.23;;
16135;SDS011;8173;48.354;9.248;2023-02-23T06:41:17;2.20;;;2.00;;
16135;SDS011;8173;48.354;9.248;2023-02-23T06:44:02;5.38;;;2.88;;
16135;SDS011;8173;48.354;9.248;2023-02-23T06:46:56;5.38;;;4.47;;
16135;SDS011;8173;48.354;9.248;2023-02-23T06:49:38;5.80;;;4.35;;
16135;SDS011;8173;48.354;9.248;2023-02-23T06:56:06;4.03;;;2.97;;
16135;SDS011;8173;48.354;9.248;2023-02-23T06:58:47;3.47;;;2.95;;
16135;SDS011;8173;48.354;9.248;2023-02-23T07:02:14;5.82;;;3.15;;
16135;SDS011;8173;48.354;9.248;2023-02-23T07:04:57;6.25;;;3.83;;
16135;SDS011;8173;48.354;9.248;2023-02-23T07:07:27;7.10;;;3.70;;
16135;SDS011;8173;48.354;9.248;2023-02-23T07:10:34;15.82;;;6.90;;
16135;SDS011;8173;48.354;9.248;2023-02-23T07:13:04;33.38;;;8.82;;
16135;SDS011;8173;48.354;9.248;2023-02-23T07:15:44;18.63;;;8.02;;
16135;SDS011;8173;48.354;9.248;2023-02-23T07:18:26;57.92;;;11.57;;
16135;SDS011;8173;48.354;9.248;2023-02-23T07:21:08;0.90;;;0.90;;
16135;SDS011;8173;48.354;9.248;2023-02-23T07:23:49;12.05;;;5.03;;
16135;SDS011;8173;48.354;9.248;2023-02-23T07:54:49;7.55;;;6.75;;
16135;SDS011;8173;48.354;9.248;2023-02-23T07:57:33;5.43;;;3.70;;
16135;SDS011;8173;48.354;9.248;2023-02-23T08:00:14;2.60;;;2.40;;
16135;SDS011;8173;48.354;9.248;2023-02-23T08:06:49;3.22;;;2.85;;
16135;SDS011;8173;48.354;9.248;2023-02-23T08:15:54;4.78;;;3.88;;
16135;SDS011;8173;48.354;9.248;2023-02-23T08:18:44;3.00;;;1.98;;
16135;SDS011;8173;48.354;9.248;2023-02-23T08:27:40;5.72;;;3.53;;
16135;SDS011;8173;48.354;9.248;2023-02-23T08:30:07;9.07;;;4.50;;
16135;SDS011;8173;48.354;9.248;2023-02-23T08:33:02;6.97;;;4.30;;
16135;SDS011;8173;48.354;9.248;2023-02-23T08:35:31;5.78;;;4.78;;
16135;SDS011;8173;48.354;9.248;2023-02-23T08:38:00;4.95;;;4.45;;
16135;SDS011;8173;48.354;9.248;2023-02-23T08:41:03;2.08;;;1.88;;
16135;SDS011;8173;48.354;9.248;2023-02-23T08:44:23;2.50;;;2.35;;
16135;SDS011;8173;48.354;9.248;2023-02-23T08:46:57;2.40;;;2.28;;
16135;SDS011;8173;48.354;9.248;2023-02-23T08:49:45;2.17;;;2.08;;
16135;SDS011;8173;48.354;9.248;2023-02-23T08:52:41;2.30;;;2.10;;
16135;SDS011;8173;48.354;9.248;2023-02-23T09:01:33;2.10;;;2.00;;
16135;SDS011;8173;48.354;9.248;2023-02-23T09:10:04;1.15;;;1.15;;
16135;SDS011;8173;48.354;9.248;2023-02-23T09:12:32;1.10;;;1.10;;
16135;SDS011;8173;48.354;9.248;2023-02-23T09:14:59;1.00;;;1.00;;
16135;SDS011;8173;48.354;9.248;2023-02-23T09:20:48;0.95;;;0.95;;
16135;SDS011;8173;48.354;9.248;2023-02-23T09:23:19;1.20;;;1.20;;
16135;SDS011;8173;48.354;9.248;2023-02-23T09:25:52;1.30;;;1.30;;
16135;SDS011;8173;48.354;9.248;2023-02-23T09:28:23;1.70;;;1.60;;
16135;SDS011;8173;48.354;9.248;2023-02-23T09:30:54;2.10;;;2.00;;
16135;SDS011;8173;48.354;9.248;2023-02-23T09:33:37;2.00;;;1.90;;
16135;SDS011;8173;48.354;9.248;2023-02-23T09:36:28;2.00;;;1.90;;
16135;SDS011;8173;48.354;9.248;2023-02-23T09:39:13;1.90;;;1.80;;
16135;SDS011;8173;48.354;9.248;2023-02-23T09:42:06;1.63;;;1.52;;
16135;SDS011;8173;48.354;9.248;2023-02-23T09:44:45;2.08;;;1.98;;
16135;SDS011;8173;48.354;9.248;2023-02-23T09:47:27;0.95;;;0.95;;
16135;SDS011;8173;48.354;9.248;2023-02-23T09:50:20;0.80;;;0.80;;
16135;SDS011;8173;48.354;9.248;2023-02-23T09:52:53;1.23;;;1.10;;
16135;SDS011;8173;48.354;9.248;2023-02-23T09:55:26;1.40;;;1.30;;
16135;SDS011;8173;48.354;9.248;2023-02-23T09:57:55;1.25;;;1.17;;
16135;SDS011;8173;48.354;9.248;2023-02-23T10:00:29;1.00;;;1.00;;
16135;SDS011;8173;48.354;9.248;2023-02-23T10:05:52;1.02;;;1.02;;
16135;SDS011;8173;48.354;9.248;2023-02-23T10:08:29;0.80;;;0.80;;
16135;SDS011;8173;48.354;9.248;2023-02-23T10:11:12;1.38;;;1.38;;
16135;SDS011;8173;48.354;9.248;2023-02-23T10:13:50;1.00;;;1.00;;
16135;SDS011;8173;48.354;9.248;2023-02-23T10:16:27;1.10;;;1.00;;
16135;SDS011;8173;48.354;9.248;2023-02-23T10:19:02;1.00;;;1.00;;
16135;SDS011;8173;48.354;9.248;2023-02-23T10:21:38;1.52;;;1.42;;
16135;SDS011;8173;48.354;9.248;2023-02-23T10:24:09;1.33;;;1.23;;
16135;SDS011;8173;48.354;9.248;2023-02-23T10:26:41;1.30;;;1.20;;
16135;SDS011;8173;48.354;9.248;2023-02-23T10:29:16;1.02;;;1.02;;
16135;SDS011;8173;48.354;9.248;2023-02-23T10:31:47;1.48;;;1.38;;
16135;SDS011;8173;48.354;9.248;2023-02-23T10:34:17;0.90;;;0.90;;
16135;SDS011;8173;48.354;9.248;2023-02-23T10:36:45;0.80;;;0.80;;
16135;SDS011;8173;48.354;9.248;2023-02-23T10:39:17;0.82;;;0.82;;
16135;SDS011;8173;48.354;9.248;2023-02-23T10:41:46;0.70;;;0.70;;
16135;SDS011;8173;48.354;9.248;2023-02-23T10:44:22;0.80;;;0.80;;
16135;SDS011;8173;48.354;9.248;2023-02-23T10:46:52;0.80;;;0.80;;
16135;SDS011;8173;48.354;9.248;2023-02-23T10:49:24;1.25;;;1.15;;
16135;SDS011;8173;48.354;9.248;2023-02-23T10:52:00;0.77;;;0.77;;
16135;SDS011;8173;48.354;9.248;2023-02-23T10:54:38;0.82;;;0.82;;
16135;SDS011;8173;48.354;9.248;2023-02-23T10:57:18;1.10;;;1.10;;
16135;SDS011;8173;48.354;9.248;2023-02-23T10:59:59;1.55;;;1.20;;
16135;SDS011;8173;48.354;9.248;2023-02-23T11:02:32;0.93;;;0.93;;
16135;SDS011;8173;48.354;9.248;2023-02-23T11:05:01;0.80;;;0.80;;
16135;SDS011;8173;48.354;9.248;2023-02-23T11:07:31;0.70;;;0.70;;
16135;SDS011;8173;48.354;9.248;2023-02-23T11:12:54;1.48;;;1.38;;
16135;SDS011;8173;48.354;9.248;2023-02-23T11:15:26;4.22;;;1.45;;
16135;SDS011;8173;48.354;9.248;2023-02-23T11:17:56;1.42;;;1.33;;
16135;SDS011;8173;48.354;9.248;2023-02-23T11:20:38;1.50;;;1.40;;
16135;SDS011;8173;48.354;9.248;2023-02-23T11:23:10;1.83;;;1.73;;
16135;SDS011;8173;48.354;9.248;2023-02-23T11:25:42;1.25;;;1.15;;
16135;SDS011;8173;48.354;9.248;2023-02-23T11:31:12;1.63;;;1.52;;
16135;SDS011;8173;48.354;9.248;2023-02-23T11:33:43;1.20;;;1.10;;
16135;SDS011;8173;48.354;9.248;2023-02-23T11:36:14;1.02;;;0.95;;
16135;SDS011;8173;48.354;9.248;2023-02-23T11:38:45;1.20;;;1.10;;
16135;SDS011;8173;48.354;9.248;2023-02-23T11:41:20;0.60;;;0.60;;
16135;SDS011;8173;48.354;9.248;2023-02-23T11:43:50;1.35;;;1.25;;
16135;SDS011;8173;48.354;9.248;2023-02-23T11:46:22;1.20;;;1.10;;
16135;SDS011;8173;48.354;9.248;2023-02-23T11:48:59;0.90;;;0.90;;
16135;SDS011;8173;48.354;9.248;2023-02-23T11:51:29;0.60;;;0.60;;
16135;SDS011;8173;48.354;9.248;2023-02-23T11:54:01;0.70;;;0.70;;
16135;SDS011;8173;48.354;9.248;2023-02-23T11:56:30;1.02;;;0.95;;
16135;SDS011;8173;48.354;9.248;2023-02-23T11:59:03;0.70;;;0.70;;
16135;SDS011;8173;48.354;9.248;2023-02-23T12:01:34;0.85;;;0.82;;
16135;SDS011;8173;48.354;9.248;2023-02-23T12:04:09;2.20;;;2.00;;
16135;SDS011;8173;48.354;9.248;2023-02-23T12:10:00;2.60;;;1.02;;
16135;SDS011;8173;48.354;9.248;2023-02-23T12:12:43;0.77;;;0.77;;
16135;SDS011;8173;48.354;9.248;2023-02-23T12:15:21;0.88;;;0.88;;
16135;SDS011;8173;48.354;9.248;2023-02-23T12:17:58;0.88;;;0.88;;
16135;SDS011;8173;48.354;9.248;2023-02-23T12:20:31;1.02;;;1.02;;
16135;SDS011;8173;48.354;9.248;2023-02-23T12:23:04;0.80;;;0.80;;
16135;SDS011;8173;48.354;9.248;2023-02-23T12:25:37;1.00;;;1.00;;
16135;SDS011;8173;48.354;9.248;2023-02-23T12:28:10;0.80;;;0.80;;
16135;SDS011;8173;48.354;9.248;2023-02-23T12:30:49;0.80;;;0.80;;
16135;SDS011;8173;48.354;9.248;2023-02-23T12:33:20;0.70;;;0.70;;
16135;SDS011;8173;48.354;9.248;2023-02-23T12:35:57;0.70;;;0.70;;
16135;SDS011;8173;48.354;9.248;2023-02-23T12:38:30;0.80;;;0.80;;
16135;SDS011;8173;48.354;9.248;2023-02-23T12:41:13;0.80;;;0.80;;
16135;SDS011;8173;48.354;9.248;2023-02-23T12:43:51;0.90;;;0.90;;
16135;SDS011;8173;48.354;9.248;2023-02-23T12:55:49;0.88;;;0.88;;
16135;SDS011;8173;48.354;9.248;2023-02-23T12:58:44;0.90;;;0.90;;
16135;SDS011;8173;48.354;9.248;2023-02-23T13:01:32;0.90;;;0.90;;
16135;SDS011;8173;48.354;9.248;2023-02-23T13:04:36;0.90;;;0.90;;
16135;SDS011;8173;48.354;9.248;2023-02-23T13:07:16;1.10;;;1.10;;
16135;SDS011;8173;48.354;9.248;2023-02-23T13:10:04;0.90;;;0.90;;
16135;SDS011;8173;48.354;9.248;2023-02-23T13:12:48;0.90;;;0.90;;
16135;SDS011;8173;48.354;9.248;2023-02-23T13:15:24;0.70;;;0.70;;
16135;SDS011;8173;48.354;9.248;2023-02-23T13:17:58;0.80;;;0.80;;
16135;SDS011;8173;48.354;9.248;2023-02-23T13:20:46;0.70;;;0.70;;
16135;SDS011;8173;48.354;9.248;2023-02-23T13:23:24;2.45;;;2.25;;
16135;SDS011;8173;48.354;9.248;2023-02-23T13:26:03;5.70;;;3.05;;
16135;SDS011;8173;48.354;9.248;2023-02-23T13:28:53;5.25;;;3.50;;
16135;SDS011;8173;48.354;9.248;2023-02-23T13:31:58;4.03;;;2.13;;
16135;SDS011;8173;48.354;9.248;2023-02-23T13:34:40;0.90;;;0.90;;
16135;SDS011;8173;48.354;9.248;2023-02-23T13:37:21;0.80;;;0.80;;
16135;SDS011;8173;48.354;9.248;2023-02-23T13:40:16;0.82;;;0.82;;
16135;SDS011;8173;48.354;9.248;2023-02-23T13:43:07;1.30;;;1.20;;
16135;SDS011;8173;48.354;9.248;2023-02-23T13:45:55;2.88;;;0.90;;
16135;SDS011;8173;48.354;9.248;2023-02-23T13:49:14;1.98;;;1.20;;
16135;SDS011;8173;48.354;9.248;2023-02-23T13:52:02;3.53;;;2.55;;
16135;SDS011;8173;48.354;9.248;2023-02-23T13:54:55;4.95;;;1.65;;
16135;SDS011;8173;48.354;9.248;2023-02-23T13:58:02;3.25;;;2.03;;
16135;SDS011;8173;48.354;9.248;2023-02-23T14:07:04;0.73;;;0.73;;
16135;SDS011;8173;48.354;9.248;2023-02-23T14:09:58;2.00;;;1.67;;
16135;SDS011;8173;48.354;9.248;2023-02-23T14:16:07;1.13;;;0.90;;
16135;SDS011;8173;48.354;9.248;2023-02-23T14:18:53;0.80;;;0.80;;
16135;SDS011;8173;48.354;9.248;2023-02-23T14:30:58;9.20;;;2.15;;
16135;SDS011;8173;48.354;9.248;2023-02-23T14:33:48;2.72;;;1.67;;
16135;SDS011;8173;48.354;9.248;2023-02-23T14:36:36;0.70;;;0.70;;
16135;SDS011;8173;48.354;9.248;2023-02-23T14:39:22;0.70;;;0.70;;
16135;SDS011;8173;48.354;9.248;2023-02-23T14:41:54;2.03;;;1.63;;
16135;SDS011;8173;48.354;9.248;2023-02-23T14:50:51;0.80;;;0.80;;
16135;SDS011;8173;48.354;9.248;2023-02-23T14:53:36;0.80;;;0.80;;
16135;SDS011;8173;48.354;9.248;2023-02-23T14:56:19;0.90;;;0.90;;
16135;SDS011;8173;48.354;9.248;2023-02-23T14:58:50;0.82;;;0.82;;
16135;SDS011;8173;48.354;9.248;2023-02-23T15:01:31;1.00;;;1.00;;
16135;SDS011;8173;48.354;9.248;2023-02-23T15:04:16;0.95;;;0.93;;
16135;SDS011;8173;48.354;9.248;2023-02-23T15:06:59;1.45;;;1.35;;
16135;SDS011;8173;48.354;9.248;2023-02-23T15:09:43;0.70;;;0.70;;
16135;SDS011;8173;48.354;9.248;2023-02-23T15:12:50;0.80;;;0.80;;
16135;SDS011;8173;48.354;9.248;2023-02-23T15:15:21;0.65;;;0.65;;
16135;SDS011;8173;48.354;9.248;2023-02-23T15:18:18;0.70;;;0.70;;
16135;SDS011;8173;48.354;9.248;2023-02-23T15:21:06;0.70;;;0.70;;
16135;SDS011;8173;48.354;9.248;2023-02-23T15:23:44;0.70;;;0.70;;
16135;SDS011;8173;48.354;9.248;2023-02-23T15:26:25;0.85;;;0.85;;
16135;SDS011;8173;48.354;9.248;2023-02-23T15:28:55;0.63;;;0.63;;
16135;SDS011;8173;48.354;9.248;2023-02-23T15:31:32;0.80;;;0.80;;
16135;SDS011;8173;48.354;9.248;2023-02-23T15:34:13;0.80;;;0.80;;
16135;SDS011;8173;48.354;9.248;2023-02-23T15:39:45;0.80;;;0.80;;
16135;SDS011;8173;48.354;9.248;2023-02-23T15:42:18;0.80;;;0.80;;
16135;SDS011;8173;48.354;9.248;2023-02-23T15:44:53;0.60;;;0.60;;
16135;SDS011;8173;48.354;9.248;2023-02-23T15:47:37;0.60;;;0.60;;
16135;SDS011;8173;48.354;9.248;2023-02-23T15:53:05;0.75;;;0.75;;
16135;SDS011;8173;48.354;9.248;2023-02-23T15:55:53;0.70;;;0.70;;
16135;SDS011;8173;48.354;9.248;2023-02-23T15:58:36;0.60;;;0.60;;
16135;SDS011;8173;48.354;9.248;2023-02-23T16:01:09;0.60;;;0.60;;
16135;SDS011;8173;48.354;9.248;2023-02-23T16:04:01;0.60;;;0.60;;
16135;SDS011;8173;48.354;9.248;2023-02-23T16:06:33;0.70;;;0.70;;
16135;SDS011;8173;48.354;9.248;2023-02-23T16:15:31;0.70;;;0.70;;
16135;SDS011;8173;48.354;9.248;2023-02-23T16:18:18;0.70;;;0.70;;
16135;SDS011;8173;48.354;9.248;2023-02-23T16:21:02;0.60;;;0.60;;
16135;SDS011;8173;48.354;9.248;2023-02-23T16:23:32;0.70;;;0.70;;
16135;SDS011;8173;48.354;9.248;2023-02-23T16:26:16;0.70;;;0.70;;
16135;SDS011;8173;48.354;9.248;2023-02-23T16:29:02;0.70;;;0.70;;
16135;SDS011;8173;48.354;9.248;2023-02-23T16:31:40;0.60;;;0.60;;
16135;SDS011;8173;48.354;9.248;2023-02-23T16:34:18;0.80;;;0.80;;
16135;SDS011;8173;48.354;9.248;2023-02-23T16:37:18;0.70;;;0.70;;
16135;SDS011;8173;48.354;9.248;2023-02-23T16:40:30;0.85;;;0.85;;
16135;SDS011;8173;48.354;9.248;2023-02-23T16:43:33;0.90;;;0.90;;
16135;SDS011;8173;48.354;9.248;2023-02-23T16:58:24;3.75;;;2.47;;
16135;SDS011;8173;48.354;9.248;2023-02-23T17:01:05;1.30;;;1.20;;
16135;SDS011;8173;48.354;9.248;2023-02-23T18:04:03;0.80;;;0.80;;
16135;SDS011;8173;48.354;9.248;2023-02-23T18:06:44;0.90;;;0.90;;
16135;SDS011;8173;48.354;9.248;2023-02-23T18:09:38;0.80;;;0.80;;
16135;SDS011;8173;48.354;9.248;2023-02-23T18:12:42;0.80;;;0.80;;
16135;SDS011;8173;48.354;9.248;2023-02-23T18:55:21;0.80;;;0.80;;
16135;SDS011;8173;48.354;9.248;2023-02-23T18:58:39;1.20;;;1.17;;
16135;SDS011;8173;48.354;9.248;2023-02-23T21:47:14;0.70;;;0.70;;
16135;SDS011;8173;48.354;9.248;2023-02-23T21:49:55;1.42;;;1.33;;
16135;SDS011;8173;48.354;9.248;2023-02-23T21:52:37;1.00;;;1.00;;
16135;SDS011;8173;48.354;9.248;2023-02-23T21:55:19;1.05;;;1.05;;
16135;SDS011;8173;48.354;9.248;2023-02-23T21:57:50;1.40;;;1.30;;
16135;SDS011;8173;48.354;9.248;2023-02-23T22:00:32;1.52;;;1.42;;
16135;SDS011;8173;48.354;9.248;2023-02-23T22:56:23;1.35;;;1.13;;
16135;SDS011;8173;48.354;9.248;2023-02-23T22:59:04;6.25;;;1.90;;
16135;SDS011;8173;48.354;9.248;2023-02-23T23:01:42;1.52;;;1.42;;
16135;SDS011;8173;48.354;9.248;2023-02-23T23:04:11;20.33;;;2.17;;
16135;SDS011;8173;48.354;9.248;2023-02-23T23:06:52;0.93;;;0.93;;
16135;SDS011;8173;48.354;9.248;2023-02-23T23:09:22;0.90;;;0.90;;
16135;SDS011;8173;48.354;9.248;2023-02-23T23:18:21;1.10;;;1.10;;
16135;SDS011;8173;48.354;9.248;2023-02-23T23:21:03;0.98;;;0.98;;
16135;SDS011;8173;48.354;9.248;2023-02-23T23:23:44;5.97;;;1.80;;
16135;SDS011;8173;48.354;9.248;2023-02-23T23:26:28;2.92;;;1.40;;
16135;SDS011;8173;48.354;9.248;2023-02-23T23:29:22;12.25;;;2.13;;
16135;SDS011;8173;48.354;9.248;2023-02-23T23:32:04;2.35;;;1.73;;
